Time;durP1;ratioP1;P1;durP2;ratioP2;P2;SDS_P1;SDS_P2;PMS_P1;PMS_P2;Temp;Humidity;BMP_temperature;BMP_pressure;BME280_temperature;BME280_humidity;BME280_pressure;Samples;Min_cycle;Max_cycle;Signal;HPM_P1;HPM_P2
2021/11/04 00:01:00;;;;;;;63.65;19.52;;;;;;;4.89;82.87;100715.89;1732438;82;22659;-62
2021/11/04 00:03:27;;;;;;;64.82;19.10;;;;;;;4.88;82.82;100715.52;1728034;81;21436;-62
2021/11/04 00:05:54;;;;;;;66.80;18.90;;;;;;;4.87;82.79;100717.75;1709846;83;21487;-63
2021/11/04 00:08:23;;;;;;;75.05;19.27;;;;;;;4.87;82.83;100709.05;1704031;82;21014;-63
2021/11/04 00:10:49;;;;;;;76.95;18.90;;;;;;;4.87;82.87;100707.28;1704792;84;21409;-62
2021/11/04 00:13:16;;;;;;;76.45;18.07;;;;;;;4.90;82.99;100711.50;1704717;83;22583;-62
2021/11/04 00:15:44;;;;;;;69.67;19.75;;;;;;;4.93;83.05;100719.69;1704325;84;21519;-62
2021/11/04 00:18:11;;;;;;;56.98;18.17;;;;;;;4.95;83.08;100723.91;1700644;82;21082;-62
2021/11/04 00:20:37;;;;;;;71.35;18.25;;;;;;;4.96;83.12;100730.00;1705428;82;20977;-62
2021/11/04 00:23:04;;;;;;;45.03;17.55;;;;;;;4.98;83.09;100733.38;1708448;83;21081;-63
2021/11/04 00:25:32;;;;;;;54.65;17.02;;;;;;;5.00;83.10;100724.98;1717749;81;22577;-62
2021/11/04 00:27:58;;;;;;;59.40;17.80;;;;;;;5.02;83.14;100716.58;1683430;82;22513;-63
2021/11/04 00:30:25;;;;;;;58.28;22.60;;;;;;;5.03;83.17;100715.68;1735743;81;21414;-63
2021/11/04 00:32:53;;;;;;;60.80;16.80;;;;;;;5.03;83.18;100720.45;1735394;80;21392;-62
2021/11/04 00:35:21;;;;;;;43.83;17.87;;;;;;;5.04;83.21;100726.06;1734573;81;21051;-63
2021/11/04 00:37:48;;;;;;;63.48;16.17;;;;;;;5.02;83.21;100717.45;1735222;82;21848;-63
2021/11/04 00:40:19;;;;;;;36.23;16.70;;;;;;;5.03;83.24;100711.75;1735297;80;21384;-64
2021/11/04 00:42:45;;;;;;;53.60;18.20;;;;;;;5.04;83.25;100719.52;1716215;83;20953;-63
2021/11/04 00:45:12;;;;;;;36.50;17.80;;;;;;;5.04;83.17;100714.75;1734756;80;21017;-63
2021/11/04 00:47:40;;;;;;;52.10;16.65;;;;;;;5.07;83.14;100717.20;1732803;80;21094;-63
2021/11/04 00:50:08;;;;;;;40.92;16.00;;;;;;;5.05;83.05;100712.52;1716265;83;21782;-63
2021/11/04 00:52:34;;;;;;;57.43;16.23;;;;;;;5.04;83.06;100710.83;1739125;81;21421;-62
2021/11/04 00:55:00;;;;;;;43.70;15.65;;;;;;;5.04;83.12;100707.74;1732252;81;20936;-62
2021/11/04 00:57:27;;;;;;;38.35;16.12;;;;;;;5.06;83.15;100707.19;1734151;81;20998;-63
2021/11/04 00:59:53;;;;;;;53.58;14.53;;;;;;;5.07;83.15;100711.97;1681450;85;21475;-62
2021/11/04 01:02:20;;;;;;;36.68;15.28;;;;;;;5.05;83.03;100717.28;1681629;84;22501;-62
2021/11/04 01:04:46;;;;;;;38.95;15.20;;;;;;;5.05;82.96;100719.91;1681561;84;21423;-63
2021/11/04 01:07:14;;;;;;;50.60;16.48;;;;;;;5.07;83.00;100718.51;1700477;82;20983;-62
2021/11/04 01:09:40;;;;;;;102.32;16.35;;;;;;;5.09;82.97;100720.58;1735263;81;21027;-63
2021/11/04 01:12:08;;;;;;;72.15;15.53;;;;;;;5.11;82.98;100723.96;1735124;80;21000;-63
2021/11/04 01:14:34;;;;;;;68.80;15.98;;;;;;;5.15;83.10;100725.05;1733397;81;21932;-62
2021/11/04 01:17:00;;;;;;;73.00;16.10;;;;;;;5.19;83.15;100732.28;1725105;80;21087;-63
2021/11/04 01:19:27;;;;;;;86.02;15.35;;;;;;;5.22;83.19;100739.15;1734393;82;21555;-63
2021/11/04 01:21:53;;;;;;;95.95;16.48;;;;;;;5.25;83.18;100742.91;1733022;82;21467;-63
2021/11/04 01:24:20;;;;;;;94.90;16.35;;;;;;;5.27;83.23;100741.05;1734428;82;21107;-62
2021/11/04 01:26:46;;;;;;;86.70;16.35;;;;;;;5.30;83.28;100735.65;1757586;80;21700;-63
2021/11/04 01:29:13;;;;;;;65.52;15.45;;;;;;;5.33;83.29;100735.51;1769788;80;21432;-62
2021/11/04 01:31:39;;;;;;;97.17;17.62;;;;;;;5.35;83.27;100730.56;1761346;80;21113;-63
2021/11/04 01:34:06;;;;;;;57.35;16.27;;;;;;;5.36;83.24;100740.11;1687361;82;21516;-62
2021/11/04 01:36:33;;;;;;;82.65;17.25;;;;;;;5.38;83.27;100744.80;1757596;81;21027;-63
2021/11/04 01:39:00;;;;;;;73.25;16.20;;;;;;;5.42;83.28;100754.22;1734713;81;21919;-62
2021/11/04 01:41:27;;;;;;;57.70;15.63;;;;;;;5.43;83.26;100755.06;1750028;81;21456;-63
2021/11/04 01:43:54;;;;;;;70.32;16.70;;;;;;;5.43;83.23;100744.58;1771543;80;21014;-62
2021/11/04 01:46:21;;;;;;;67.53;17.10;;;;;;;5.43;83.23;100753.75;1753588;80;21060;-63
2021/11/04 01:48:49;;;;;;;62.93;17.48;;;;;;;5.42;83.21;100763.38;1731825;81;20977;-63
2021/11/04 01:51:17;;;;;;;75.28;17.10;;;;;;;5.41;83.23;100767.40;1676658;85;21827;-62
2021/11/04 01:53:44;;;;;;;71.05;17.50;;;;;;;5.43;83.31;100770.31;1674318;85;21005;-63
2021/11/04 01:56:13;;;;;;;83.45;17.65;;;;;;;5.44;83.33;100760.68;1712125;82;21055;-63
2021/11/04 01:58:39;;;;;;;105.40;19.32;;;;;;;5.44;83.36;100763.30;1679595;83;21012;-63
2021/11/04 02:01:05;;;;;;;101.15;20.32;;;;;;;5.45;83.38;100773.69;1733824;82;21073;-62
2021/11/04 02:04:26;;;;;;;87.95;21.48;;;;;;;5.48;83.44;100772.68;1711638;83;22202;-63
2021/11/04 02:07:03;;;;;;;118.60;26.07;;;;;;;5.52;83.52;100774.70;1685276;83;21070;-62
2021/11/04 02:09:34;;;;;;;147.78;28.73;;;;;;;5.55;83.58;100780.61;1674573;83;21589;-64
2021/11/04 02:12:15;;;;;;;130.25;24.72;;;;;;;5.58;83.65;100776.52;1711124;83;21052;-62
2021/11/04 02:14:48;;;;;;;188.78;25.55;;;;;;;5.60;83.64;100785.16;1712510;83;21024;-62
2021/11/04 02:17:16;;;;;;;181.05;30.20;;;;;;;5.58;83.60;100793.55;1770312;79;22472;-63
2021/11/04 02:19:51;;;;;;;126.85;28.27;;;;;;;5.57;83.61;100804.95;1771362;81;21500;-63
2021/11/04 02:22:38;;;;;;;162.55;25.23;;;;;;;5.58;83.66;100801.87;1758723;81;21465;-64
2021/11/04 02:25:19;;;;;;;170.15;32.93;;;;;;;5.57;83.70;100804.95;1731075;81;20969;-63
2021/11/04 02:27:49;;;;;;;198.65;46.08;;;;;;;5.58;83.73;100807.95;1755391;80;21441;-62
2021/11/04 02:30:16;;;;;;;179.20;60.88;;;;;;;5.60;83.82;100799.58;1740229;82;21853;-63
2021/11/04 02:32:44;;;;;;;228.37;78.28;;;;;;;5.65;83.93;100799.33;1760295;81;21017;-62
2021/11/04 02:35:10;;;;;;;278.90;90.40;;;;;;;5.71;84.02;100800.33;1771291;81;21093;-62
2021/11/04 02:37:37;;;;;;;412.38;133.97;;;;;;;5.73;84.04;100799.31;1771273;81;21000;-63
2021/11/04 02:40:05;;;;;;;533.58;157.40;;;;;;;5.74;84.06;100815.41;1727724;82;21018;-62
2021/11/04 02:42:31;;;;;;;677.80;181.02;;;;;;;5.75;84.12;100817.57;1703670;82;22582;-64
2021/11/04 02:44:58;;;;;;;667.20;174.23;;;;;;;5.75;84.14;100822.34;1772226;80;21014;-62
2021/11/04 02:47:24;;;;;;;472.85;157.45;;;;;;;5.74;84.15;100819.34;1771301;81;21061;-62
2021/11/04 02:49:51;;;;;;;471.65;139.60;;;;;;;5.75;84.20;100816.27;1746165;80;21054;-63
2021/11/04 02:52:18;;;;;;;406.82;134.18;;;;;;;5.78;84.28;100816.09;1719553;81;21030;-63
2021/11/04 02:54:54;;;;;;;329.35;110.75;;;;;;;5.80;84.32;100818.19;1771270;81;21883;-63
2021/11/04 02:57:20;;;;;;;318.42;102.32;;;;;;;5.84;84.35;100813.16;1741900;81;21057;-63
2021/11/04 02:59:47;;;;;;;279.90;94.87;;;;;;;5.85;84.31;100818.78;1676414;85;20985;-62
2021/11/04 03:02:14;;;;;;;289.63;86.70;;;;;;;5.83;84.34;100828.50;1673754;84;21437;-62
2021/11/04 03:04:40;;;;;;;312.60;80.83;;;;;;;5.85;84.35;100831.89;1673779;83;21040;-62
2021/11/04 03:07:07;;;;;;;307.00;70.47;;;;;;;5.86;84.35;100836.20;1684295;83;22520;-63
2021/11/04 03:09:35;;;;;;;292.43;61.08;;;;;;;5.85;84.36;100842.38;1740754;82;21455;-64
2021/11/04 03:12:05;;;;;;;366.40;52.60;;;;;;;5.86;84.44;100842.75;1740691;82;21499;-62
2021/11/04 03:14:31;;;;;;;355.23;47.62;;;;;;;5.88;84.49;100841.36;1749665;81;21037;-63
2021/11/04 03:16:59;;;;;;;332.95;40.73;;;;;;;5.88;84.47;100840.05;1771384;79;20950;-62
2021/11/04 03:19:26;;;;;;;375.98;42.45;;;;;;;5.94;84.41;100855.50;1768098;81;21817;-63
2021/11/04 03:21:54;;;;;;;251.98;37.93;;;;;;;5.99;84.23;100852.19;1771193;80;21073;-63
2021/11/04 03:24:22;;;;;;;359.90;36.42;;;;;;;6.02;84.20;100850.70;1767104;81;21048;-63
2021/11/04 03:27:00;;;;;;;356.93;35.20;;;;;;;6.04;84.26;100842.28;1771124;80;20966;-62
2021/11/04 03:29:34;;;;;;;333.38;33.92;;;;;;;6.07;84.23;100839.49;1757083;81;21017;-63
2021/11/04 03:32:02;;;;;;;292.48;34.08;;;;;;;6.05;84.22;100838.73;1739928;82;21863;-62
2021/11/04 03:34:30;;;;;;;287.70;32.98;;;;;;;6.08;84.25;100836.41;1748879;81;20997;-63
2021/11/04 03:36:56;;;;;;;256.30;28.95;;;;;;;6.12;84.29;100841.42;1771234;81;21144;-62
2021/11/04 03:39:23;;;;;;;223.30;26.87;;;;;;;6.16;84.29;100838.16;1769546;80;21013;-62
2021/11/04 03:41:51;;;;;;;234.05;31.42;;;;;;;6.18;84.29;100848.97;1771556;81;20962;-62
2021/11/04 03:44:20;;;;;;;133.52;26.27;;;;;;;6.20;84.31;100853.66;1767016;80;21830;-63
2021/11/04 03:46:48;;;;;;;221.60;27.65;;;;;;;5.99;84.86;100855.66;1769399;81;20961;-62
2021/11/04 03:49:17;;;;;;;198.38;27.98;;;;;;;6.00;85.09;100857.81;1742154;81;21019;-62
2021/11/04 03:51:44;;;;;;;201.45;25.15;;;;;;;6.01;85.19;100845.92;1729623;82;20967;-63
2021/11/04 03:54:11;;;;;;;125.90;21.90;;;;;;;6.04;85.24;100856.70;1729378;82;21062;-63
2021/11/04 03:56:40;;;;;;;177.05;23.47;;;;;;;6.06;85.30;100850.91;1745920;81;21854;-62
2021/11/04 03:59:09;;;;;;;156.85;20.68;;;;;;;6.07;85.35;100849.98;1771338;81;20997;-62
2021/11/04 04:01:35;;;;;;;171.10;20.40;;;;;;;6.25;84.99;100854.71;1771574;81;20970;-63
2021/11/04 04:04:03;;;;;;;113.47;15.30;;;;;;;6.28;84.85;100868.53;1771329;81;21140;-63
2021/11/04 04:06:30;;;;;;;144.57;18.32;;;;;;;6.29;84.73;100874.16;1734763;81;20993;-63
2021/11/04 04:08:58;;;;;;;94.97;15.88;;;;;;;6.29;84.71;100870.22;1737340;82;21876;-62
2021/11/04 04:11:24;;;;;;;70.92;14.03;;;;;;;6.29;84.71;100864.97;1733497;81;21495;-62
2021/11/04 04:13:53;;;;;;;126.85;14.20;;;;;;;6.32;84.73;100856.09;1771333;79;21568;-63
2021/11/04 04:16:20;;;;;;;151.37;14.35;;;;;;;6.36;84.75;100862.00;1765086;81;20959;-63
2021/11/04 04:18:48;;;;;;;113.85;14.23;;;;;;;6.37;84.73;100873.75;1770687;79;20970;-63
2021/11/04 04:21:15;;;;;;;127.15;15.05;;;;;;;6.38;84.69;100876.75;1769197;80;21825;-64
2021/11/04 04:23:42;;;;;;;96.85;14.10;;;;;;;6.38;84.66;100873.28;1711693;82;21551;-63
2021/11/04 04:26:09;;;;;;;65.62;14.47;;;;;;;6.41;84.64;100871.80;1683719;83;21086;-63
2021/11/04 04:28:35;;;;;;;99.15;15.58;;;;;;;6.42;84.66;100868.23;1679783;83;20957;-63
2021/11/04 04:31:02;;;;;;;74.00;14.95;;;;;;;6.45;84.68;100865.44;1694133;84;21017;-63
2021/11/04 04:33:29;;;;;;;98.62;14.78;;;;;;;6.47;84.74;100866.23;1680887;84;21809;-64
2021/11/04 04:35:58;;;;;;;83.52;19.80;;;;;;;6.47;84.78;100859.67;1693560;82;20985;-63
2021/11/04 04:38:24;;;;;;;72.10;26.37;;;;;;;6.50;84.78;100846.37;1700314;82;21028;-64
2021/11/04 04:40:52;;;;;;;77.22;26.27;;;;;;;6.50;84.82;100841.97;1702649;82;21073;-65
2021/11/04 04:43:18;;;;;;;102.32;22.37;;;;;;;6.53;84.85;100841.78;1738817;80;21416;-63
2021/11/04 04:45:45;;;;;;;74.55;16.87;;;;;;;6.57;84.86;100831.98;1744532;80;22442;-65
2021/11/04 04:48:11;;;;;;;65.52;15.72;;;;;;;6.60;84.89;100827.87;1744576;80;21008;-64
2021/11/04 04:50:39;;;;;;;63.02;14.83;;;;;;;6.63;84.95;100822.91;1742875;80;20905;-64
2021/11/04 04:53:08;;;;;;;37.05;14.23;;;;;;;6.66;84.98;100826.23;1730527;82;20969;-64
2021/11/04 04:55:35;;;;;;;57.73;12.58;;;;;;;6.68;84.98;100829.61;1706198;82;21124;-66
2021/11/04 04:58:03;;;;;;;35.13;12.23;;;;;;;6.71;84.97;100836.45;1736228;81;21891;-67
2021/11/04 05:00:30;;;;;;;29.25;13.00;;;;;;;6.68;84.89;100838.80;1740640;80;20977;-67
2021/11/04 05:02:57;;;;;;;41.00;12.60;;;;;;;6.66;84.88;100839.34;1735880;80;21021;-66
2021/11/04 05:05:23;;;;;;;37.42;12.82;;;;;;;6.66;84.92;100845.03;1765709;81;20993;-67
2021/11/04 05:07:50;;;;;;;27.62;13.53;;;;;;;6.65;84.95;100853.38;1749871;81;20993;-68
2021/11/04 05:10:18;;;;;;;36.83;13.55;;;;;;;6.66;85.01;100869.54;1685902;83;20945;-68
2021/11/04 05:12:45;;;;;;;38.58;13.28;;;;;;;6.70;85.05;100874.98;1690146;83;21475;-67
2021/11/04 05:15:13;;;;;;;69.35;15.68;;;;;;;6.74;85.09;100877.80;1741745;80;21008;-67
2021/11/04 05:17:39;;;;;;;98.05;16.32;;;;;;;6.75;85.10;100866.38;1743234;80;21000;-65
2021/11/04 05:20:09;;;;;;;89.20;15.10;;;;;;;6.82;85.21;100861.64;1734591;82;20974;-66
2021/11/04 05:22:36;;;;;;;127.20;15.65;;;;;;;6.86;85.32;100865.33;1725153;81;21846;-65
2021/11/04 05:25:04;;;;;;;120.50;15.45;;;;;;;6.77;85.84;100856.66;1743460;81;21053;-66
2021/11/04 05:27:31;;;;;;;120.60;15.10;;;;;;;6.82;85.95;100851.98;1767405;80;21525;-64
2021/11/04 05:29:57;;;;;;;152.40;12.13;;;;;;;6.87;86.12;100863.08;1774751;78;21012;-65
2021/11/04 05:32:24;;;;;;;138.32;12.78;;;;;;;6.92;86.21;100867.22;1774436;79;21053;-65
2021/11/04 05:34:52;;;;;;;106.40;13.10;;;;;;;6.96;86.33;100865.66;1771238;79;23313;-65
2021/11/04 05:37:18;;;;;;;112.00;11.78;;;;;;;7.01;86.41;100868.86;1772195;80;21417;-64
2021/11/04 05:39:45;;;;;;;86.97;11.12;;;;;;;7.07;86.51;100876.88;1772421;80;21050;-64
2021/11/04 05:42:12;;;;;;;91.63;10.78;;;;;;;7.12;86.59;100889.26;1771820;79;21018;-64
2021/11/04 05:44:40;;;;;;;80.87;10.98;;;;;;;7.15;86.66;100890.42;1771610;81;20958;-64
2021/11/04 05:47:07;;;;;;;85.20;10.30;;;;;;;7.20;86.72;100896.24;1767272;79;22566;-65
2021/11/04 05:49:34;;;;;;;54.05;11.83;;;;;;;7.23;86.80;100908.34;1770882;80;21021;-64
2021/11/04 05:52:01;;;;;;;98.62;12.68;;;;;;;7.25;86.87;100909.13;1764115;81;21510;-64
2021/11/04 05:54:28;;;;;;;84.67;12.37;;;;;;;7.28;86.95;100904.54;1771243;81;21044;-64
2021/11/04 05:56:55;;;;;;;90.42;12.68;;;;;;;7.31;87.04;100896.47;1764165;80;21001;-64
2021/11/04 05:59:21;;;;;;;99.42;12.20;;;;;;;7.37;87.09;100900.07;1767365;80;21821;-64
2021/11/04 06:01:48;;;;;;;63.95;11.15;;;;;;;7.42;87.17;100891.91;1783492;79;20981;-65
2021/11/04 06:04:14;;;;;;;79.15;11.73;;;;;;;7.63;86.80;100903.82;1766527;79;20996;-64
2021/11/04 06:06:41;;;;;;;124.55;12.10;;;;;;;7.68;86.69;100904.85;1727490;81;21121;-64
2021/11/04 06:09:08;;;;;;;87.22;11.25;;;;;;;7.72;86.64;100907.22;1714978;82;21227;-64
2021/11/04 06:11:35;;;;;;;130.82;12.05;;;;;;;7.78;86.65;100895.48;1706586;83;21816;-64
2021/11/04 06:14:02;;;;;;;145.38;13.10;;;;;;;7.84;86.64;100904.80;1709525;82;21539;-64
2021/11/04 06:16:30;;;;;;;128.80;11.93;;;;;;;7.88;86.69;100900.56;1709914;82;20966;-64
2021/11/04 06:18:57;;;;;;;87.62;10.35;;;;;;;7.92;86.74;100890.25;1701944;82;21586;-64
2021/11/04 06:21:24;;;;;;;96.17;12.50;;;;;;;7.97;86.78;100889.97;1701004;83;21467;-64
2021/11/04 06:23:50;;;;;;;119.80;11.75;;;;;;;8.01;86.80;100888.39;1719924;80;21821;-64
2021/11/04 06:26:18;;;;;;;94.70;11.85;;;;;;;8.04;86.83;100877.67;1714512;83;20978;-63
2021/11/04 06:28:45;;;;;;;87.80;11.83;;;;;;;8.09;86.88;100875.22;1727777;81;21035;-63
2021/11/04 06:31:12;;;;;;;111.10;13.48;;;;;;;8.11;86.92;100878.16;1726316;81;21055;-64
2021/11/04 06:33:39;;;;;;;108.47;13.93;;;;;;;8.14;86.93;100894.22;1727681;83;20972;-66
2021/11/04 06:36:05;;;;;;;135.95;13.03;;;;;;;8.17;86.95;100907.17;1729093;81;21804;-64
2021/11/04 06:38:34;;;;;;;119.28;12.53;;;;;;;8.21;87.00;100908.22;1714705;82;21092;-64
2021/11/04 06:41:01;;;;;;;92.57;14.70;;;;;;;8.25;87.05;100909.72;1698586;84;20995;-64
2021/11/04 06:43:29;;;;;;;129.45;16.55;;;;;;;8.30;87.11;100915.56;1730616;80;21091;-64
2021/11/04 06:45:56;;;;;;;75.97;16.40;;;;;;;8.36;87.16;100914.83;1723049;81;21024;-64
2021/11/04 06:48:48;;;;;;;106.72;17.73;;;;;;;8.42;87.18;100903.92;1723248;83;21822;-64
2021/11/04 06:51:17;;;;;;;70.80;17.35;;;;;;;8.48;87.27;100905.69;1717188;82;21009;-64
2021/11/04 06:53:48;;;;;;;88.82;18.32;;;;;;;8.56;87.33;100911.80;1719097;83;21008;-64
2021/11/04 06:56:14;;;;;;;100.95;19.40;;;;;;;8.59;87.35;100918.21;1706384;82;21016;-64
2021/11/04 06:58:46;;;;;;;106.87;18.32;;;;;;;8.64;87.40;100917.44;1713658;82;21052;-66
2021/11/04 07:01:15;;;;;;;62.95;17.80;;;;;;;8.67;87.41;100919.87;1714653;81;21806;-64
2021/11/04 07:04:10;;;;;;;69.00;19.25;;;;;;;8.70;87.38;100916.22;1710615;81;21016;-64
2021/11/04 07:06:45;;;;;;;57.58;20.27;;;;;;;8.72;87.34;100930.97;1713818;82;21437;-64
2021/11/04 07:09:11;;;;;;;59.27;19.20;;;;;;;8.76;87.39;100936.88;1713716;82;21040;-64
2021/11/04 07:11:38;;;;;;;56.40;17.92;;;;;;;8.81;87.42;100937.45;1710430;83;21032;-64
2021/11/04 07:14:04;;;;;;;85.57;19.82;;;;;;;8.83;87.40;100943.47;1716268;83;21935;-64
2021/11/04 07:16:32;;;;;;;86.10;18.70;;;;;;;8.84;87.38;100943.84;1717121;80;21031;-65
2021/11/04 07:18:59;;;;;;;64.60;18.35;;;;;;;8.85;87.36;100941.58;1718695;81;20973;-65
2021/11/04 07:21:44;;;;;;;88.62;17.95;;;;;;;8.85;87.33;100946.84;1741986;82;20961;-64
2021/11/04 07:24:16;;;;;;;83.45;17.17;;;;;;;8.88;87.34;100946.67;1727918;81;21018;-64
2021/11/04 07:26:44;;;;;;;70.60;17.77;;;;;;;8.88;87.30;100946.20;1760807;81;21843;-65
2021/11/04 07:29:11;;;;;;;70.25;16.97;;;;;;;8.91;87.32;100934.61;1743900;81;21047;-66
2021/11/04 07:31:40;;;;;;;74.10;16.12;;;;;;;8.94;87.32;100929.14;1744127;82;20969;-66
2021/11/04 07:34:10;;;;;;;91.90;17.37;;;;;;;8.95;87.29;100927.34;1733657;82;21010;-65
2021/11/04 07:36:38;;;;;;;34.92;15.18;;;;;;;8.94;87.27;100918.59;1747353;81;21050;-66
2021/11/04 07:39:07;;;;;;;62.83;16.73;;;;;;;8.96;87.30;100914.07;1737140;82;21827;-67
2021/11/04 07:41:35;;;;;;;46.40;16.10;;;;;;;8.97;87.30;100907.02;1737080;82;21032;-64
2021/11/04 07:44:04;;;;;;;70.05;19.10;;;;;;;8.99;87.33;100902.04;1737207;82;21040;-65
2021/11/04 07:46:30;;;;;;;64.20;18.07;;;;;;;8.99;87.31;100901.20;1724383;82;20978;-66
2021/11/04 07:48:57;;;;;;;48.08;18.17;;;;;;;9.03;87.38;100901.36;1735500;82;20993;-67
2021/11/04 07:51:23;;;;;;;37.83;16.82;;;;;;;9.06;87.42;100907.27;1735512;82;21881;-65
2021/11/04 07:53:50;;;;;;;34.90;17.85;;;;;;;9.10;87.45;100916.68;1735274;82;20957;-67
2021/11/04 07:56:17;;;;;;;37.75;19.82;;;;;;;9.14;87.51;100907.62;1728154;81;21009;-67
2021/11/04 07:58:44;;;;;;;37.05;20.43;;;;;;;9.20;87.55;100901.59;1719333;81;21665;-65
2021/11/04 08:01:11;;;;;;;34.27;21.37;;;;;;;9.25;87.61;100896.84;1726900;81;20961;-64
2021/11/04 08:03:37;;;;;;;28.65;19.77;;;;;;;9.31;87.68;100905.20;1725285;81;21785;-66
2021/11/04 08:06:04;;;;;;;33.23;21.35;;;;;;;9.38;87.71;100906.98;1718080;80;21004;-66
2021/11/04 08:08:32;;;;;;;30.85;21.57;;;;;;;9.41;87.68;100911.56;1774433;80;21038;-67
2021/11/04 08:10:59;;;;;;;36.73;23.07;;;;;;;9.46;87.72;100913.44;1702251;83;20977;-66
2021/11/04 08:13:26;;;;;;;35.05;25.00;;;;;;;9.52;87.71;100902.94;1708654;84;21001;-64
2021/11/04 08:15:53;;;;;;;36.90;26.27;;;;;;;9.57;87.72;100905.28;1709251;82;21911;-69
2021/11/04 08:18:21;;;;;;;40.33;25.80;;;;;;;9.61;87.74;100910.23;1713416;81;21100;-67
2021/11/04 08:20:48;;;;;;;38.53;25.68;;;;;;;9.64;87.71;100912.66;1701217;81;21118;-66
2021/11/04 08:23:15;;;;;;;37.73;26.77;;;;;;;9.69;87.69;100916.33;1755984;81;20991;-67
2021/11/04 08:25:43;;;;;;;36.25;27.52;;;;;;;9.73;87.66;100920.44;1716605;82;21170;-66
2021/11/04 08:28:09;;;;;;;42.35;28.15;;;;;;;9.76;87.60;100916.30;1709314;81;22601;-64
2021/11/04 08:30:36;;;;;;;39.83;27.95;;;;;;;9.80;87.65;100911.17;1733236;81;21355;-65
2021/11/04 08:33:03;;;;;;;39.15;28.35;;;;;;;9.86;87.67;100918.69;1757734;81;21510;-63
2021/11/04 08:35:30;;;;;;;37.03;26.82;;;;;;;9.93;87.67;100919.09;1738775;81;21010;-63
2021/11/04 08:37:57;;;;;;;37.23;26.75;;;;;;;9.96;87.62;100919.74;1700756;82;21475;-63
2021/11/04 08:40:23;;;;;;;38.17;26.40;;;;;;;10.03;87.62;100922.31;1686064;85;22499;-63
2021/11/04 08:42:51;;;;;;;38.63;27.98;;;;;;;10.09;87.57;100914.94;1629312;86;21376;-64
2021/11/04 08:45:17;;;;;;;39.55;27.73;;;;;;;10.13;87.46;100905.84;1652555;86;21025;-63
2021/11/04 08:47:45;;;;;;;38.33;28.17;;;;;;;10.19;87.45;100895.72;1672164;85;21025;-64
2021/11/04 08:50:14;;;;;;;45.43;30.45;;;;;;;10.23;87.28;100889.77;1726137;82;20996;-68
2021/11/04 08:52:41;;;;;;;36.05;27.40;;;;;;;10.27;87.23;100889.47;1739474;82;21826;-64
2021/11/04 08:55:09;;;;;;;36.42;26.07;;;;;;;10.32;87.12;100887.33;1703268;82;20987;-65
2021/11/04 08:57:37;;;;;;;37.10;28.38;;;;;;;10.36;87.04;100884.02;1679137;83;21060;-64
2021/11/04 09:00:06;;;;;;;38.00;28.25;;;;;;;10.41;86.95;100870.00;1658523;83;21087;-66
2021/11/04 09:02:34;;;;;;;40.20;30.25;;;;;;;10.46;86.75;100867.05;1655502;84;21085;-66
2021/11/04 09:05:06;;;;;;;39.85;26.52;;;;;;;10.53;86.69;100872.27;1682658;83;21840;-66
2021/11/04 09:07:29;;;;;;;38.38;31.40;;;;;;;10.57;86.57;100863.16;1703023;82;21381;-66
2021/11/04 09:09:55;;;;;;;37.95;30.52;;;;;;;10.59;86.34;100859.45;1687864;82;21016;-68
2021/11/04 09:12:25;;;;;;;35.63;27.40;;;;;;;10.65;86.25;100867.42;1711436;82;21080;-67
2021/11/04 09:15:00;;;;;;;42.60;33.33;;;;;;;10.71;86.16;100866.98;1725253;81;21514;-67
2021/11/04 09:17:33;;;;;;;38.15;29.02;;;;;;;10.77;86.03;100869.17;1743913;80;26091;-67
2021/11/04 09:20:04;;;;;;;37.83;29.75;;;;;;;10.83;85.90;100865.25;1701837;82;21542;-68
2021/11/04 09:22:33;;;;;;;32.93;26.07;;;;;;;10.89;85.73;100866.95;1702075;82;21489;-68
2021/11/04 09:25:00;;;;;;;35.65;26.85;;;;;;;10.94;85.57;100865.79;1744815;82;21032;-67
2021/11/04 09:27:26;;;;;;;38.60;29.45;;;;;;;11.03;85.38;100874.37;1737026;82;21396;-67
2021/11/04 09:29:56;;;;;;;33.15;27.37;;;;;;;11.05;85.10;100865.36;1734328;81;21791;-68
2021/11/04 09:32:21;;;;;;;32.03;25.10;;;;;;;11.13;85.03;100864.80;1734610;82;21105;-68
2021/11/04 09:34:48;;;;;;;39.33;28.70;;;;;;;11.22;84.89;100858.00;1729105;82;20970;-68
2021/11/04 09:37:17;;;;;;;37.03;28.42;;;;;;;11.23;84.50;100852.59;1714106;83;21010;-68
2021/11/04 09:39:43;;;;;;;41.50;29.85;;;;;;;11.27;84.35;100853.19;1711021;81;21477;-68
2021/11/04 09:42:09;;;;;;;41.00;30.30;;;;;;;11.39;84.31;100855.78;1726664;82;21808;-67
2021/11/04 09:44:36;;;;;;;49.08;30.92;;;;;;;11.55;84.28;100849.31;1736513;82;21107;-69
2021/11/04 09:47:03;;;;;;;49.08;32.75;;;;;;;11.75;84.16;100852.12;1713798;81;21069;-66
2021/11/04 09:49:29;;;;;;;51.20;35.15;;;;;;;12.00;84.15;100850.27;1732162;82;20957;-68
2021/11/04 09:51:56;;;;;;;51.48;33.58;;;;;;;12.26;83.85;100849.09;1744482;82;21016;-69
2021/11/04 09:54:24;;;;;;;42.50;30.97;;;;;;;12.50;83.34;100854.72;1699217;81;22610;-68
2021/11/04 09:56:52;;;;;;;48.73;31.65;;;;;;;12.71;82.84;100858.28;1723786;81;21048;-68
2021/11/04 09:59:19;;;;;;;46.58;31.57;;;;;;;12.93;82.30;100841.95;1685843;85;20977;-70
2021/11/04 10:01:48;;;;;;;44.30;30.68;;;;;;;13.10;81.73;100839.61;1700022;81;21068;-68
2021/11/04 10:04:14;;;;;;;45.10;31.65;;;;;;;13.26;81.00;100837.05;1709287;81;21492;-69
2021/11/04 10:06:41;;;;;;;45.35;31.82;;;;;;;13.34;79.96;100832.80;1744023;82;22195;-69
2021/11/04 10:09:10;;;;;;;39.30;29.27;;;;;;;13.40;79.26;100828.77;1743767;82;21520;-68
2021/11/04 10:11:42;;;;;;;42.00;32.65;;;;;;;13.49;78.71;100822.69;1739870;82;20942;-69
2021/11/04 10:14:14;;;;;;;41.30;30.72;;;;;;;13.52;78.05;100818.96;1721099;82;21409;-68
2021/11/04 10:16:44;;;;;;;43.58;33.05;;;;;;;13.59;77.42;100814.30;1710604;82;21000;-69
2021/11/04 10:19:16;;;;;;;45.50;33.63;;;;;;;13.61;76.97;100811.55;1709993;82;22204;-65
2021/11/04 10:21:47;;;;;;;49.03;34.05;;;;;;;13.64;76.39;100809.46;1678310;83;21470;-68
2021/11/04 10:24:24;;;;;;;47.95;34.85;;;;;;;13.57;75.90;100811.43;1734559;82;21001;-68
2021/11/04 10:26:55;;;;;;;39.55;31.00;;;;;;;13.50;75.68;100819.06;1734304;82;21421;-68
2021/11/04 10:29:25;;;;;;;44.93;30.90;;;;;;;13.54;75.77;100809.05;1759510;79;21042;-68
2021/11/04 10:31:58;;;;;;;41.50;29.65;;;;;;;13.65;75.91;100803.66;1753225;80;21887;-68
2021/11/04 10:34:29;;;;;;;43.90;29.35;;;;;;;13.79;75.62;100790.52;1740456;80;38266;-68
2021/11/04 10:36:56;;;;;;;39.38;30.45;;;;;;;13.93;75.38;100779.56;1725669;81;21043;-69
2021/11/04 10:39:27;;;;;;;38.70;28.55;;;;;;;14.07;74.94;100787.64;1720751;81;21084;-69
2021/11/04 10:41:56;;;;;;;39.42;28.15;;;;;;;14.19;74.87;100774.63;1738458;82;21131;-68
2021/11/04 10:44:23;;;;;;;41.65;27.52;;;;;;;14.27;74.23;100767.64;1738028;81;21817;-68
2021/11/04 10:46:52;;;;;;;29.85;25.08;;;;;;;14.32;73.85;100764.59;1736652;81;20938;-67
2021/11/04 10:49:21;;;;;;;31.93;24.35;;;;;;;14.32;73.13;100771.23;1711381;82;20945;-67
2021/11/04 10:51:58;;;;;;;27.95;22.70;;;;;;;14.29;73.04;100779.00;1749207;80;21003;-67
2021/11/04 10:54:24;;;;;;;31.07;23.85;;;;;;;14.15;72.03;100774.05;1718924;80;21146;-67
2021/11/04 10:56:53;;;;;;;29.25;24.05;;;;;;;13.94;72.16;100768.80;1657988;85;22243;-67
2021/11/04 10:59:20;;;;;;;31.17;24.72;;;;;;;13.89;72.46;100772.33;1679098;85;20941;-68
2021/11/04 11:01:53;;;;;;;34.95;26.17;;;;;;;13.85;72.38;100768.27;1679266;84;20949;-68
2021/11/04 11:04:25;;;;;;;34.33;26.23;;;;;;;13.82;72.28;100772.53;1706846;84;21218;-68
2021/11/04 11:06:58;;;;;;;35.60;25.27;;;;;;;13.89;72.63;100768.84;1673759;85;20942;-67
2021/11/04 11:09:33;;;;;;;33.25;24.87;;;;;;;14.05;72.93;100765.20;1675454;84;21821;-67
2021/11/04 11:12:04;;;;;;;38.10;25.43;;;;;;;14.20;72.94;100755.90;1707696;82;21011;-70
2021/11/04 11:14:39;;;;;;;32.38;23.77;;;;;;;14.42;72.91;100757.48;1699675;82;21049;-67
2021/11/04 11:17:06;;;;;;;30.12;23.85;;;;;;;14.59;72.90;100759.98;1707565;82;21037;-68